createdAt,value
2023-01-27T00:00:23.144Z,1007.3
2023-01-27T00:01:39.452Z,1007.2
2023-01-27T00:02:55.734Z,1007.3
2023-01-27T00:04:12.032Z,1007.3
2023-01-27T00:05:28.339Z,1007.2
2023-01-27T00:06:44.613Z,1007.3
2023-01-27T00:08:00.912Z,1007.2
2023-01-27T00:09:17.215Z,1007.2
2023-01-27T00:10:33.510Z,1007.2
2023-01-27T00:11:48.812Z,1007.2
2023-01-27T00:13:05.107Z,1007.2
2023-01-27T00:14:21.391Z,1007.1
2023-01-27T00:15:37.688Z,1007.1
2023-01-27T00:16:53.977Z,1007.1
2023-01-27T00:18:10.271Z,1007.1
2023-01-27T00:19:26.569Z,1007.1
2023-01-27T00:20:42.865Z,1007.1
2023-01-27T00:21:59.169Z,1007.1
2023-01-27T00:23:15.446Z,1007.2
2023-01-27T00:24:31.757Z,1007.1
2023-01-27T00:25:48.051Z,1007.2
2023-01-27T00:27:04.334Z,1007.2
2023-01-27T00:28:19.637Z,1007.2
2023-01-27T00:29:35.935Z,1007.1
2023-01-27T00:30:52.242Z,1007.1
2023-01-27T00:32:08.533Z,1007.2
2023-01-27T00:33:24.821Z,1007.2
2023-01-27T00:34:41.107Z,1007.1
2023-01-27T00:35:57.414Z,1007.2
2023-01-27T00:37:13.707Z,1007.1
2023-01-27T00:38:29.998Z,1007.1
2023-01-27T00:39:46.293Z,1007.1
2023-01-27T00:41:02.572Z,1007.1
2023-01-27T00:42:18.876Z,1007.1
2023-01-27T00:43:35.178Z,1007.1
2023-01-27T00:44:50.485Z,1007.2
2023-01-27T00:46:06.765Z,1007.2
2023-01-27T00:47:23.059Z,1007.2
2023-01-27T00:48:39.351Z,1007.2
2023-01-27T00:49:55.648Z,1007.1
2023-01-27T00:51:11.941Z,1007.2
2023-01-27T00:52:28.251Z,1007.2
2023-01-27T00:53:44.539Z,1007.2
2023-01-27T00:55:00.831Z,1007.2
2023-01-27T00:56:17.114Z,1007.2
2023-01-27T00:57:33.420Z,1007.2
2023-01-27T00:58:49.701Z,1007.2
2023-01-27T01:00:05.999Z,1007.2
2023-01-27T01:01:21.304Z,1007.2
2023-01-27T01:02:37.604Z,1007.2
2023-01-27T01:03:53.905Z,1007.2
2023-01-27T01:05:10.200Z,1007.3
2023-01-27T01:06:26.487Z,1007.2
2023-01-27T01:07:42.787Z,1007.2
2023-01-27T01:08:59.061Z,1007.2
2023-01-27T01:10:15.375Z,1007.2
2023-01-27T01:11:31.660Z,1007.2
2023-01-27T01:12:47.962Z,1007.2
2023-01-27T01:14:04.236Z,1007.2
2023-01-27T01:15:20.536Z,1007.2
2023-01-27T01:16:36.835Z,1007.2
2023-01-27T01:17:52.138Z,1007.2
2023-01-27T01:19:08.435Z,1007.2
2023-01-27T01:20:24.725Z,1007.2
2023-01-27T01:21:41.015Z,1007.2
2023-01-27T01:22:57.305Z,1007.2
2023-01-27T01:24:13.612Z,1007.2
2023-01-27T01:25:28.931Z,1007.3
2023-01-27T01:26:45.224Z,1007.2
2023-01-27T01:28:01.515Z,1007.2
2023-01-27T01:29:17.808Z,1007.2
2023-01-27T01:30:34.094Z,1007.2
2023-01-27T01:31:50.385Z,1007.2
2023-01-27T01:33:06.679Z,1007.2
2023-01-27T01:34:22.988Z,1007.2
2023-01-27T01:35:39.266Z,1007.2
2023-01-27T01:36:55.567Z,1007.1
2023-01-27T01:38:11.850Z,1007.1
2023-01-27T01:39:28.163Z,1007.1
2023-01-27T01:40:44.454Z,1007.1
2023-01-27T01:41:59.756Z,1007.1
2023-01-27T01:43:16.042Z,1007.1
2023-01-27T01:44:32.348Z,1007.2
2023-01-27T01:47:04.937Z,1007.2
2023-01-27T01:48:21.217Z,1007.2
2023-01-27T01:49:37.517Z,1007.2
2023-01-27T01:50:53.818Z,1007.1
2023-01-27T01:52:10.109Z,1007.1
2023-01-27T01:53:26.403Z,1007.1
2023-01-27T01:54:42.700Z,1007.1
2023-01-27T01:55:58.988Z,1007.1
2023-01-27T01:57:15.288Z,1007.1
2023-01-27T01:58:30.586Z,1007.1
2023-01-27T01:59:46.881Z,1007.1
2023-01-27T02:01:03.187Z,1007.1
2023-01-27T02:02:19.462Z,1007.1
2023-01-27T02:03:35.767Z,1007.1
2023-01-27T02:04:52.060Z,1007.1
2023-01-27T02:06:08.344Z,1007.1
2023-01-27T02:07:24.638Z,1007.1
2023-01-27T02:08:40.933Z,1007.2
2023-01-27T02:09:57.225Z,1007.2
2023-01-27T02:11:13.527Z,1007.1
2023-01-27T02:12:29.815Z,1007.1
2023-01-27T02:13:46.119Z,1007.2
2023-01-27T02:15:01.414Z,1007.1
2023-01-27T02:16:17.707Z,1007.1
2023-01-27T02:17:34.001Z,1007.1
2023-01-27T02:18:50.293Z,1007.1
2023-01-27T02:20:06.585Z,1007.2
2023-01-27T02:21:22.895Z,1007.1
2023-01-27T02:22:39.189Z,1007.1
2023-01-27T02:23:55.470Z,1007.1
2023-01-27T02:25:11.765Z,1007
2023-01-27T02:26:28.069Z,1007.1
2023-01-27T02:27:44.350Z,1007.1
2023-01-27T02:29:00.647Z,1007.1
2023-01-27T02:30:16.946Z,1007.1
2023-01-27T02:31:32.250Z,1007.1
2023-01-27T02:32:48.554Z,1007.1
2023-01-27T02:34:04.836Z,1007.1
2023-01-27T02:35:21.129Z,1007.2
2023-01-27T02:36:37.420Z,1007.2
2023-01-27T02:37:53.713Z,1007.2
2023-01-27T02:39:10.014Z,1007.2
2023-01-27T02:40:26.307Z,1007.2
2023-01-27T02:41:42.593Z,1007.2
2023-01-27T02:42:58.888Z,1007.2
2023-01-27T02:44:15.199Z,1007.2
2023-01-27T02:45:31.482Z,1007.2
2023-01-27T02:46:47.774Z,1007.3
2023-01-27T02:48:03.079Z,1007.3
2023-01-27T02:49:19.376Z,1007.3
2023-01-27T02:50:35.668Z,1007.3
2023-01-27T02:51:51.968Z,1007.3
2023-01-27T02:53:08.264Z,1007.3
2023-01-27T02:54:24.557Z,1007.3
2023-01-27T02:55:40.856Z,1007.4
2023-01-27T02:56:57.134Z,1007.4
2023-01-27T02:58:13.442Z,1007.4
2023-01-27T02:59:29.736Z,1007.4
2023-01-27T03:00:46.022Z,1007.4
2023-01-27T03:02:02.313Z,1007.4
2023-01-27T03:03:18.599Z,1007.5
2023-01-27T03:04:33.927Z,1007.5
2023-01-27T03:05:50.215Z,1007.6
2023-01-27T03:07:06.510Z,1007.5
2023-01-27T03:08:22.798Z,1007.6
2023-01-27T03:09:39.086Z,1007.6
2023-01-27T03:10:55.391Z,1007.6
2023-01-27T03:12:11.679Z,1007.6
2023-01-27T03:13:27.973Z,1007.6
2023-01-27T03:14:44.277Z,1007.6
2023-01-27T03:16:00.551Z,1007.6
2023-01-27T03:17:16.853Z,1007.6
2023-01-27T03:18:33.151Z,1007.7
2023-01-27T03:19:49.442Z,1007.6
2023-01-27T03:21:04.746Z,1007.7
2023-01-27T03:22:21.045Z,1007.6
2023-01-27T03:23:37.328Z,1007.7
2023-01-27T03:24:53.633Z,1007.7
2023-01-27T03:26:09.925Z,1007.7
2023-01-27T03:27:26.226Z,1007.7
2023-01-27T03:28:42.509Z,1007.7
2023-01-27T03:29:58.797Z,1007.7
2023-01-27T03:31:15.090Z,1007.7
2023-01-27T03:32:31.394Z,1007.7
2023-01-27T03:33:47.679Z,1007.7
2023-01-27T03:35:03.970Z,1007.7
2023-01-27T03:36:20.265Z,1007.7
2023-01-27T03:37:35.572Z,1007.7
2023-01-27T03:38:51.875Z,1007.8
2023-01-27T03:40:08.159Z,1007.8
2023-01-27T03:41:24.463Z,1007.8
2023-01-27T03:42:40.762Z,1007.8
2023-01-27T03:43:57.059Z,1007.8
2023-01-27T03:45:13.340Z,1007.8
2023-01-27T03:46:29.637Z,1007.8
2023-01-27T03:47:45.931Z,1007.8
2023-01-27T03:49:02.224Z,1007.8
2023-01-27T03:50:18.511Z,1007.7
2023-01-27T03:51:34.800Z,1007.8
2023-01-27T03:52:51.111Z,1007.8
2023-01-27T03:54:06.404Z,1007.8
2023-01-27T03:55:22.706Z,1007.8
2023-01-27T03:56:38.994Z,1007.8
2023-01-27T03:57:55.301Z,1007.7
2023-01-27T03:59:11.590Z,1007.7
2023-01-27T04:00:27.885Z,1007.7
2023-01-27T04:01:44.174Z,1007.7
2023-01-27T04:03:00.462Z,1007.7
2023-01-27T04:04:16.756Z,1007.8
2023-01-27T04:05:33.063Z,1007.8
2023-01-27T04:06:49.343Z,1007.7
2023-01-27T04:08:05.641Z,1007.7
2023-01-27T04:09:21.937Z,1007.7
2023-01-27T04:10:37.237Z,1007.7
2023-01-27T04:11:53.548Z,1007.7
2023-01-27T04:13:09.829Z,1007.7
2023-01-27T04:14:26.136Z,1007.7
2023-01-27T04:15:42.415Z,1007.7
2023-01-27T04:16:58.705Z,1007.7
2023-01-27T04:18:15.015Z,1007.7
2023-01-27T04:19:31.311Z,1007.7
2023-01-27T04:20:47.604Z,1007.7
2023-01-27T04:22:03.879Z,1007.7
2023-01-27T04:23:20.188Z,1007.7
2023-01-27T04:24:36.482Z,1007.7
2023-01-27T04:25:52.766Z,1007.7
2023-01-27T04:27:08.070Z,1007.8
2023-01-27T04:28:24.363Z,1007.8
2023-01-27T04:29:40.658Z,1007.8
2023-01-27T04:30:56.953Z,1007.8
2023-01-27T04:32:13.255Z,1007.8
2023-01-27T04:33:29.556Z,1007.7
2023-01-27T04:34:45.847Z,1007.7
2023-01-27T04:36:02.127Z,1007.7
2023-01-27T04:37:18.432Z,1007.8
2023-01-27T04:38:34.713Z,1007.8
2023-01-27T04:39:51.012Z,1007.8
2023-01-27T04:41:07.315Z,1007.9
2023-01-27T04:42:23.601Z,1007.9
2023-01-27T04:43:38.915Z,1007.9
2023-01-27T04:44:55.207Z,1008
2023-01-27T04:46:11.506Z,1008
2023-01-27T04:47:27.789Z,1008
2023-01-27T04:48:44.080Z,1008
2023-01-27T04:50:00.387Z,1008
2023-01-27T04:51:16.677Z,1008
2023-01-27T04:52:32.956Z,1008
2023-01-27T04:53:49.259Z,1008
2023-01-27T04:55:05.550Z,1008
2023-01-27T04:56:21.838Z,1008
2023-01-27T04:57:38.136Z,1008
2023-01-27T04:58:54.440Z,1008
2023-01-27T05:00:09.748Z,1008
2023-01-27T05:01:26.027Z,1008.1
2023-01-27T05:02:42.334Z,1008
2023-01-27T05:03:58.624Z,1008
2023-01-27T05:05:14.927Z,1008
2023-01-27T05:06:31.203Z,1008
2023-01-27T05:07:47.513Z,1008
2023-01-27T05:09:03.802Z,1008
2023-01-27T05:10:20.080Z,1008
2023-01-27T05:11:36.379Z,1008
2023-01-27T05:12:52.671Z,1008
2023-01-27T05:14:08.973Z,1008
2023-01-27T05:15:25.258Z,1008
2023-01-27T05:16:40.578Z,1008.1
2023-01-27T05:17:56.864Z,1008.1
2023-01-27T05:19:13.154Z,1008.1
2023-01-27T05:20:29.456Z,1008.1
2023-01-27T05:21:45.752Z,1008
2023-01-27T05:23:02.031Z,1008.1
2023-01-27T05:24:18.325Z,1008.1
2023-01-27T05:25:34.636Z,1008
2023-01-27T05:26:50.916Z,1008
2023-01-27T05:28:07.221Z,1008.1
2023-01-27T05:29:23.511Z,1008.1
2023-01-27T05:30:39.801Z,1008.1
2023-01-27T05:31:56.086Z,1008.1
2023-01-27T05:33:11.415Z,1008.1
2023-01-27T05:34:27.698Z,1008.1
2023-01-27T05:35:43.998Z,1008.1
2023-01-27T05:37:00.279Z,1008.2
2023-01-27T05:38:16.578Z,1008.1
2023-01-27T05:39:32.885Z,1008.1
2023-01-27T05:40:48.188Z,1008.2
2023-01-27T05:43:20.760Z,1008.2
2023-01-27T05:44:37.065Z,1008.2
2023-01-27T05:45:53.346Z,1008.2
2023-01-27T05:47:09.656Z,1008.1
2023-01-27T05:48:25.943Z,1008.1
2023-01-27T05:49:42.244Z,1008.2
2023-01-27T05:50:58.529Z,1008.1
2023-01-27T05:52:14.820Z,1008.2
2023-01-27T05:53:31.125Z,1008.1
2023-01-27T05:54:47.404Z,1008.2
2023-01-27T05:57:19.999Z,1008.2
2023-01-27T05:58:35.297Z,1008.1
2023-01-27T05:59:51.604Z,1008.2
2023-01-27T06:01:07.887Z,1008.2
2023-01-27T06:02:24.188Z,1008.2
2023-01-27T06:03:40.489Z,1008.2
2023-01-27T06:04:56.778Z,1008.2
2023-01-27T06:06:13.066Z,1008.3
2023-01-27T06:07:29.354Z,1008.2
2023-01-27T06:08:45.662Z,1008.2
2023-01-27T06:10:01.958Z,1008.2
2023-01-27T06:11:18.252Z,1008.3
2023-01-27T06:12:34.526Z,1008.3
2023-01-27T06:13:50.824Z,1008.3
2023-01-27T06:15:06.135Z,1008.3
2023-01-27T06:16:22.432Z,1008.4
2023-01-27T06:17:38.720Z,1008.3
2023-01-27T06:18:55.012Z,1008.3
2023-01-27T06:20:11.321Z,1008.3
2023-01-27T06:21:27.599Z,1008.3
2023-01-27T06:22:43.909Z,1008.3
2023-01-27T06:24:00.189Z,1008.2
2023-01-27T06:25:16.493Z,1008.3
2023-01-27T06:26:32.788Z,1008.3
2023-01-27T06:27:49.065Z,1008.3
2023-01-27T06:29:05.365Z,1008.3
2023-01-27T06:30:21.657Z,1008.3
2023-01-27T06:31:36.913Z,1008.3
2023-01-27T06:32:53.177Z,1008.4
2023-01-27T06:34:09.400Z,1008.4
2023-01-27T06:35:25.649Z,1008.4
2023-01-27T06:36:41.886Z,1008.4
2023-01-27T06:37:58.124Z,1008.5
2023-01-27T06:39:14.376Z,1008.4
2023-01-27T06:40:30.614Z,1008.5
2023-01-27T06:41:46.859Z,1008.4
2023-01-27T06:43:03.097Z,1008.4
2023-01-27T06:44:19.339Z,1008.4
2023-01-27T06:45:35.576Z,1008.4
2023-01-27T06:46:51.823Z,1008.4
2023-01-27T06:48:07.076Z,1008.4
2023-01-27T06:49:23.315Z,1008.4
2023-01-27T06:50:39.558Z,1008.4
2023-01-27T06:51:55.783Z,1008.3
2023-01-27T06:53:12.027Z,1008.4
2023-01-27T06:54:28.264Z,1008.4
2023-01-27T06:55:44.498Z,1008.4
2023-01-27T06:57:00.752Z,1008.4
2023-01-27T06:58:16.983Z,1008.4
2023-01-27T06:59:33.236Z,1008.4
2023-01-27T07:00:49.462Z,1008.4
2023-01-27T07:02:05.702Z,1008.4
2023-01-27T07:03:21.948Z,1008.4
2023-01-27T07:04:37.203Z,1008.4
2023-01-27T07:05:53.440Z,1008.4
2023-01-27T07:07:09.683Z,1008.4
2023-01-27T07:08:25.912Z,1008.5
2023-01-27T07:09:42.167Z,1008.4
2023-01-27T07:10:58.401Z,1008.5
2023-01-27T07:12:14.630Z,1008.5
2023-01-27T07:13:30.866Z,1008.5
2023-01-27T07:14:47.111Z,1008.5
2023-01-27T07:16:03.363Z,1008.5
2023-01-27T07:17:19.588Z,1008.5
2023-01-27T07:18:35.843Z,1008.5
2023-01-27T07:19:52.072Z,1008.6
2023-01-27T07:21:07.326Z,1008.6
2023-01-27T07:22:23.565Z,1008.6
2023-01-27T07:23:39.810Z,1008.6
2023-01-27T07:24:56.054Z,1008.7
2023-01-27T07:26:12.291Z,1008.7
2023-01-27T07:27:28.520Z,1008.7
2023-01-27T07:28:44.767Z,1008.8
2023-01-27T07:30:01.011Z,1008.7
2023-01-27T07:31:17.241Z,1008.8
2023-01-27T07:32:33.493Z,1008.8
2023-01-27T07:33:49.719Z,1008.8
2023-01-27T07:35:05.972Z,1008.8
2023-01-27T07:36:22.203Z,1008.8
2023-01-27T07:37:37.453Z,1008.8
2023-01-27T07:38:53.695Z,1008.8
2023-01-27T07:40:09.931Z,1008.8
2023-01-27T07:41:26.169Z,1008.8
2023-01-27T07:42:42.421Z,1008.8
2023-01-27T07:43:58.652Z,1008.8
2023-01-27T07:45:14.905Z,1008.8
2023-01-27T07:46:31.135Z,1008.8
2023-01-27T07:47:47.377Z,1008.9
2023-01-27T07:49:03.615Z,1008.9
2023-01-27T07:50:19.853Z,1008.9
2023-01-27T07:51:36.090Z,1008.9
2023-01-27T07:52:52.336Z,1009
2023-01-27T07:54:07.590Z,1008.9
2023-01-27T07:55:23.821Z,1008.9
2023-01-27T07:56:40.070Z,1009
2023-01-27T07:57:56.302Z,1008.9
2023-01-27T07:59:12.544Z,1008.9
2023-01-27T08:00:28.780Z,1008.9
2023-01-27T08:01:45.024Z,1009
2023-01-27T08:03:01.273Z,1009
2023-01-27T08:04:17.498Z,1009
2023-01-27T08:05:33.739Z,1009
2023-01-27T08:06:49.991Z,1008.9
2023-01-27T08:08:06.221Z,1009
2023-01-27T08:09:22.467Z,1009
2023-01-27T08:10:37.730Z,1009
2023-01-27T08:11:53.963Z,1009
2023-01-27T08:13:10.199Z,1009.1
2023-01-27T08:14:26.432Z,1009.1
2023-01-27T08:15:42.681Z,1009.1
2023-01-27T08:16:58.916Z,1009.2
2023-01-27T08:18:15.163Z,1009.1
2023-01-27T08:19:31.405Z,1009.1
2023-01-27T08:20:47.640Z,1009.1
2023-01-27T08:22:03.878Z,1009.1
2023-01-27T08:23:20.108Z,1009.1
2023-01-27T08:24:36.361Z,1009
2023-01-27T08:25:52.602Z,1009.1
2023-01-27T08:27:07.863Z,1009.1
2023-01-27T08:28:24.103Z,1009.1
2023-01-27T08:29:40.334Z,1009.1
2023-01-27T08:30:56.568Z,1009.1
2023-01-27T08:32:12.812Z,1009.1
2023-01-27T08:33:29.051Z,1009.1
2023-01-27T08:34:45.301Z,1009.1
2023-01-27T08:36:01.533Z,1009.1
2023-01-27T08:37:17.774Z,1009.2
2023-01-27T08:38:34.010Z,1009.2
2023-01-27T08:39:50.261Z,1009.2
2023-01-27T08:41:06.499Z,1009.1
2023-01-27T08:42:22.728Z,1009.1
2023-01-27T08:43:37.991Z,1009.1
2023-01-27T08:44:54.226Z,1009.1
2023-01-27T08:46:10.464Z,1009.1
2023-01-27T08:47:26.694Z,1009.1
2023-01-27T08:48:42.948Z,1009.1
2023-01-27T08:49:59.193Z,1009.2
2023-01-27T08:51:15.424Z,1009.2
2023-01-27T08:52:31.666Z,1009.2
2023-01-27T08:53:47.895Z,1009.2
2023-01-27T08:55:04.137Z,1009.2
2023-01-27T08:56:20.385Z,1009.2
2023-01-27T08:57:36.630Z,1009.2
2023-01-27T08:58:52.862Z,1009.2
2023-01-27T09:00:08.109Z,1009.2
2023-01-27T09:01:24.359Z,1009.2
2023-01-27T09:02:40.587Z,1009.2
2023-01-27T09:03:56.840Z,1009.3
2023-01-27T09:05:13.066Z,1009.3
2023-01-27T09:06:29.325Z,1009.3
2023-01-27T09:07:45.565Z,1009.3
2023-01-27T09:09:01.789Z,1009.3
2023-01-27T09:10:18.038Z,1009.3
2023-01-27T09:11:34.280Z,1009.3
2023-01-27T09:12:50.516Z,1009.3
2023-01-27T09:14:06.748Z,1009.3
2023-01-27T09:15:22.982Z,1009.3
2023-01-27T09:16:38.253Z,1009.3
2023-01-27T09:17:54.478Z,1009.3
2023-01-27T09:19:10.724Z,1009.4
2023-01-27T09:20:26.966Z,1009.4
2023-01-27T09:21:43.212Z,1009.4
2023-01-27T09:22:59.442Z,1009.4
2023-01-27T09:24:15.689Z,1009.4
2023-01-27T09:25:31.920Z,1009.4
2023-01-27T09:26:48.154Z,1009.3
2023-01-27T09:28:04.412Z,1009.3
2023-01-27T09:29:20.639Z,1009.3
2023-01-27T09:30:36.880Z,1009.3
2023-01-27T09:31:53.123Z,1009.3
2023-01-27T09:33:08.383Z,1009.3
2023-01-27T09:34:24.623Z,1009.3
2023-01-27T09:35:40.856Z,1009.3
2023-01-27T09:36:57.085Z,1009.3
2023-01-27T09:39:29.584Z,1009.3
2023-01-27T09:40:45.818Z,1009.3
2023-01-27T09:42:02.062Z,1009.3
2023-01-27T09:43:18.300Z,1009.3
2023-01-27T09:44:34.537Z,1009.4
2023-01-27T09:45:50.760Z,1009.4
2023-01-27T09:47:07.012Z,1009.4
2023-01-27T09:48:23.251Z,1009.4
2023-01-27T09:49:38.508Z,1009.4
2023-01-27T09:50:54.735Z,1009.4
2023-01-27T09:52:10.983Z,1009.4
2023-01-27T09:53:27.234Z,1009.4
2023-01-27T09:54:43.469Z,1009.3
2023-01-27T09:55:58.728Z,1009.4
2023-01-27T09:57:14.968Z,1009.3
2023-01-27T09:58:31.213Z,1009.3
2023-01-27T09:59:47.445Z,1009.3
2023-01-27T10:01:03.685Z,1009.3
2023-01-27T10:02:19.928Z,1009.3
2023-01-27T10:03:36.160Z,1009.3
2023-01-27T10:04:52.406Z,1009.3
2023-01-27T10:06:08.630Z,1009.3
2023-01-27T10:07:24.877Z,1009.3
2023-01-27T10:08:41.112Z,1009.3
2023-01-27T10:09:57.363Z,1009.3
2023-01-27T10:11:13.589Z,1009.3
2023-01-27T10:12:28.859Z,1009.3
2023-01-27T10:13:45.095Z,1009.3
2023-01-27T10:15:01.339Z,1009.3
2023-01-27T10:16:17.580Z,1009.3
2023-01-27T10:17:33.811Z,1009.3
2023-01-27T10:18:50.054Z,1009.3
2023-01-27T10:20:06.282Z,1009.3
2023-01-27T10:21:22.530Z,1009.4
2023-01-27T10:22:38.774Z,1009.3
2023-01-27T10:23:55.002Z,1009.4
2023-01-27T10:25:11.245Z,1009.4
2023-01-27T10:26:27.497Z,1009.4
2023-01-27T10:27:43.734Z,1009.3
2023-01-27T10:28:58.973Z,1009.3
2023-01-27T10:30:15.223Z,1009.3
2023-01-27T10:31:31.467Z,1009.3
2023-01-27T10:32:47.696Z,1009.4
2023-01-27T10:34:03.947Z,1009.3
2023-01-27T10:35:20.183Z,1009.3
2023-01-27T10:36:36.416Z,1009.3
2023-01-27T10:37:52.665Z,1009.3
2023-01-27T10:39:08.899Z,1009.3
2023-01-27T10:40:25.128Z,1009.4
2023-01-27T10:41:41.380Z,1009.3
2023-01-27T10:42:57.613Z,1009.4
2023-01-27T10:44:13.846Z,1009.4
2023-01-27T10:45:29.110Z,1009.4
2023-01-27T10:46:45.347Z,1009.4
2023-01-27T10:48:01.594Z,1009.4
2023-01-27T10:49:17.834Z,1009.4
2023-01-27T10:50:34.061Z,1009.4
2023-01-27T10:51:50.311Z,1009.4
2023-01-27T10:53:06.555Z,1009.4
2023-01-27T10:54:22.782Z,1009.4
2023-01-27T10:55:39.026Z,1009.4
2023-01-27T10:56:55.261Z,1009.4
2023-01-27T10:58:11.509Z,1009.4
2023-01-27T10:59:27.742Z,1009.3
2023-01-27T11:00:43.980Z,1009.4
2023-01-27T11:01:59.244Z,1009.3
2023-01-27T11:03:15.470Z,1009.3
2023-01-27T11:04:31.723Z,1009.3
2023-01-27T11:05:47.964Z,1009.3
2023-01-27T11:07:04.205Z,1009.3
2023-01-27T11:08:20.442Z,1009.3
2023-01-27T11:09:36.686Z,1009.3
2023-01-27T11:10:52.911Z,1009.3
2023-01-27T11:12:09.157Z,1009.3
2023-01-27T11:13:25.385Z,1009.3
2023-01-27T11:14:41.641Z,1009.3
2023-01-27T11:15:57.881Z,1009.3
2023-01-27T11:17:14.114Z,1009.3
2023-01-27T11:18:29.368Z,1009.3
2023-01-27T11:19:45.600Z,1009.3
2023-01-27T11:21:01.839Z,1009.3
2023-01-27T11:22:18.088Z,1009.4
2023-01-27T11:23:34.323Z,1009.4
2023-01-27T11:24:50.558Z,1009.4
2023-01-27T11:26:06.814Z,1009.4
2023-01-27T11:27:23.047Z,1009.4
2023-01-27T11:28:39.280Z,1009.4
2023-01-27T11:29:55.532Z,1009.4
2023-01-27T11:31:11.757Z,1009.4
2023-01-27T11:32:28.005Z,1009.4
2023-01-27T11:33:44.247Z,1009.4
2023-01-27T11:34:59.494Z,1009.4
2023-01-27T11:36:15.743Z,1009.4
2023-01-27T11:37:31.981Z,1009.4
2023-01-27T11:38:48.210Z,1009.4
2023-01-27T11:40:04.449Z,1009.4
2023-01-27T11:41:20.699Z,1009.4
2023-01-27T11:42:36.926Z,1009.4
2023-01-27T11:43:53.169Z,1009.4
2023-01-27T11:45:09.416Z,1009.3
2023-01-27T11:46:25.653Z,1009.3
2023-01-27T11:47:41.889Z,1009.3
2023-01-27T11:48:58.120Z,1009.3
2023-01-27T11:50:14.378Z,1009.3
2023-01-27T11:51:29.633Z,1009.3
2023-01-27T11:52:45.864Z,1009.3
2023-01-27T11:54:02.107Z,1009.3
2023-01-27T11:55:18.340Z,1009.3
2023-01-27T11:56:34.572Z,1009.3
2023-01-27T11:57:50.815Z,1009.2
2023-01-27T11:59:07.070Z,1009.3
2023-01-27T12:00:23.309Z,1009.3
2023-01-27T12:01:39.531Z,1009.3
2023-01-27T12:02:55.770Z,1009.3
2023-01-27T12:04:12.020Z,1009.2
2023-01-27T12:05:28.255Z,1009.3
2023-01-27T12:06:44.490Z,1009.3
2023-01-27T12:07:59.754Z,1009.2
2023-01-27T12:09:16.000Z,1009.2
2023-01-27T12:10:32.239Z,1009.2
2023-01-27T12:11:48.474Z,1009.2
2023-01-27T12:13:04.718Z,1009.2
2023-01-27T12:14:20.948Z,1009.2
2023-01-27T12:15:37.198Z,1009.2
2023-01-27T12:16:53.432Z,1009.1
2023-01-27T12:18:09.667Z,1009.1
2023-01-27T12:19:25.897Z,1009.1
2023-01-27T12:20:42.134Z,1009.1
2023-01-27T12:21:58.387Z,1009.1
2023-01-27T12:23:14.625Z,1009
2023-01-27T12:24:29.871Z,1009.1
2023-01-27T12:25:46.125Z,1009
2023-01-27T12:27:02.365Z,1009
2023-01-27T12:28:18.586Z,1009
2023-01-27T12:29:34.841Z,1009
2023-01-27T12:30:51.084Z,1008.9
2023-01-27T12:32:07.318Z,1008.9
2023-01-27T12:33:23.561Z,1008.8
2023-01-27T12:34:39.794Z,1008.8
2023-01-27T12:35:56.041Z,1008.8
2023-01-27T12:37:12.267Z,1008.9
2023-01-27T12:38:28.518Z,1008.8
2023-01-27T12:39:44.740Z,1008.8
2023-01-27T12:41:00.001Z,1008.9
2023-01-27T12:42:16.257Z,1008.8
2023-01-27T12:43:32.485Z,1008.9
2023-01-27T12:44:48.718Z,1008.9
2023-01-27T12:46:04.961Z,1008.9
2023-01-27T12:47:21.210Z,1008.9
2023-01-27T12:48:37.448Z,1008.9
2023-01-27T12:49:53.689Z,1008.9
2023-01-27T12:51:09.913Z,1009
2023-01-27T12:52:26.149Z,1008.9
2023-01-27T12:53:42.397Z,1008.9
2023-01-27T12:54:58.630Z,1008.9
2023-01-27T12:56:14.872Z,1008.8
2023-01-27T12:57:30.140Z,1008.8
2023-01-27T12:58:46.365Z,1008.9
2023-01-27T13:00:02.618Z,1008.8
2023-01-27T13:01:18.844Z,1008.9
2023-01-27T13:02:35.099Z,1008.9
2023-01-27T13:03:51.336Z,1009
2023-01-27T13:05:07.560Z,1008.9
2023-01-27T13:06:23.811Z,1008.9
2023-01-27T13:07:40.046Z,1008.9
2023-01-27T13:08:56.281Z,1008.9
2023-01-27T13:10:12.519Z,1008.9
2023-01-27T13:11:28.760Z,1008.9
2023-01-27T13:12:45.011Z,1008.9
2023-01-27T13:14:00.252Z,1008.9
2023-01-27T13:15:16.491Z,1008.9
2023-01-27T13:16:32.731Z,1008.9
2023-01-27T13:17:48.985Z,1008.9
2023-01-27T13:19:05.217Z,1008.9
2023-01-27T13:20:21.447Z,1008.9
2023-01-27T13:21:37.700Z,1008.9
2023-01-27T13:22:53.945Z,1008.9
2023-01-27T13:24:10.167Z,1008.9
2023-01-27T13:25:26.418Z,1008.8
2023-01-27T13:26:42.663Z,1008.8
2023-01-27T13:27:58.890Z,1008.8
2023-01-27T13:29:15.123Z,1008.9
2023-01-27T13:30:30.392Z,1008.9
2023-01-27T13:31:46.637Z,1008.9
2023-01-27T13:33:02.857Z,1008.9
2023-01-27T13:34:19.100Z,1008.9
2023-01-27T13:35:35.349Z,1008.9
2023-01-27T13:36:51.583Z,1008.9
2023-01-27T13:38:07.822Z,1008.9
2023-01-27T13:39:24.059Z,1009
2023-01-27T13:40:40.300Z,1009
2023-01-27T13:41:56.540Z,1009.1
2023-01-27T13:43:12.781Z,1009.1
2023-01-27T13:44:29.016Z,1009.1
2023-01-27T13:45:45.261Z,1009.1
2023-01-27T13:47:00.513Z,1009.1
2023-01-27T13:48:16.745Z,1009.1
2023-01-27T13:49:32.998Z,1009.1
2023-01-27T13:50:49.234Z,1009.1
2023-01-27T13:52:05.481Z,1009.2
2023-01-27T13:53:21.710Z,1009.1
2023-01-27T13:54:37.956Z,1009.2
2023-01-27T13:55:54.191Z,1009.2
2023-01-27T13:57:10.440Z,1009.2
2023-01-27T13:58:26.672Z,1009.2
2023-01-27T13:59:42.916Z,1009.2
2023-01-27T14:00:59.140Z,1009.2
2023-01-27T14:02:15.398Z,1009.2
2023-01-27T14:03:30.652Z,1009.3
2023-01-27T14:04:46.891Z,1009.4
2023-01-27T14:06:03.117Z,1009.3
2023-01-27T14:07:19.359Z,1009.3
2023-01-27T14:08:35.609Z,1009.3
2023-01-27T14:09:51.835Z,1009.3
2023-01-27T14:11:07.095Z,1009.3
2023-01-27T14:12:23.342Z,1009.3
2023-01-27T14:13:39.594Z,1009.3
2023-01-27T14:14:55.816Z,1009.3
2023-01-27T14:16:12.061Z,1009.3
2023-01-27T14:17:28.301Z,1009.4
2023-01-27T14:18:44.538Z,1009.3
2023-01-27T14:20:00.779Z,1009.3
2023-01-27T14:21:17.017Z,1009.4
2023-01-27T14:22:33.265Z,1009.3
2023-01-27T14:23:49.495Z,1009.4
2023-01-27T14:25:05.740Z,1009.3
2023-01-27T14:26:21.984Z,1009.3
2023-01-27T14:27:37.241Z,1009.3
2023-01-27T14:28:53.469Z,1009.3
2023-01-27T14:30:09.719Z,1009.4
2023-01-27T14:31:25.939Z,1009.4
2023-01-27T14:33:58.420Z,1009.4
2023-01-27T14:35:14.665Z,1009.3
2023-01-27T14:36:30.900Z,1009.3
2023-01-27T14:37:47.153Z,1009.3
2023-01-27T14:39:03.389Z,1009.4
2023-01-27T14:40:19.630Z,1009.4
2023-01-27T14:41:35.872Z,1009.3
2023-01-27T14:42:52.115Z,1009.4
2023-01-27T14:44:07.368Z,1009.4
2023-01-27T14:45:23.594Z,1009.3
2023-01-27T14:46:39.848Z,1009.3
2023-01-27T14:47:56.083Z,1009.4
2023-01-27T14:49:12.321Z,1009.4
2023-01-27T14:50:28.557Z,1009.4
2023-01-27T14:51:44.797Z,1009.4
2023-01-27T14:53:01.029Z,1009.4
2023-01-27T14:54:17.286Z,1009.4
2023-01-27T14:55:33.524Z,1009.4
2023-01-27T14:56:49.765Z,1009.4
2023-01-27T14:58:06.004Z,1009.4
2023-01-27T14:59:22.238Z,1009.4
2023-01-27T15:00:37.000Z,1009.4
2023-01-27T15:01:53.744Z,1009.5
2023-01-27T15:03:09.966Z,1009.4
2023-01-27T15:04:26.203Z,1009.4
2023-01-27T15:05:42.443Z,1009.5
2023-01-27T15:06:58.697Z,1009.4
2023-01-27T15:08:14.944Z,1009.4
2023-01-27T15:09:31.182Z,1009.4
2023-01-27T15:10:47.414Z,1009.4
2023-01-27T15:12:03.662Z,1009.4
2023-01-27T15:13:19.900Z,1009.4
2023-01-27T15:14:36.130Z,1009.4
2023-01-27T15:15:52.382Z,1009.4
2023-01-27T15:17:07.633Z,1009.4
2023-01-27T15:18:23.864Z,1009.4
2023-01-27T15:19:40.108Z,1009.4
2023-01-27T15:20:56.345Z,1009.3
2023-01-27T15:22:12.580Z,1009.4
2023-01-27T15:23:28.836Z,1009.4
2023-01-27T15:24:45.060Z,1009.4
2023-01-27T15:26:01.306Z,1009.4
2023-01-27T15:27:17.550Z,1009.4
2023-01-27T15:28:33.781Z,1009.4
2023-01-27T15:29:50.030Z,1009.5
2023-01-27T15:31:06.266Z,1009.5
2023-01-27T15:32:22.496Z,1009.5
2023-01-27T15:33:37.761Z,1009.5
2023-01-27T15:34:54.003Z,1009.5
2023-01-27T15:36:10.250Z,1009.5
2023-01-27T15:37:26.475Z,1009.5
2023-01-27T15:38:42.714Z,1009.6
2023-01-27T15:39:58.954Z,1009.5
2023-01-27T15:41:15.194Z,1009.6
2023-01-27T15:42:31.441Z,1009.6
2023-01-27T15:43:47.673Z,1009.6
2023-01-27T15:45:03.910Z,1009.6
2023-01-27T15:46:20.151Z,1009.6
2023-01-27T15:47:36.394Z,1009.7
2023-01-27T15:48:52.641Z,1009.7
2023-01-27T15:50:07.881Z,1009.7
2023-01-27T15:51:24.122Z,1009.7
2023-01-27T15:52:40.375Z,1009.7
2023-01-27T15:53:56.611Z,1009.8
2023-01-27T15:55:12.851Z,1009.8
2023-01-27T15:56:29.094Z,1009.8
2023-01-27T15:57:45.317Z,1009.8
2023-01-27T15:59:01.556Z,1009.8
2023-01-27T16:00:17.805Z,1009.8